createdAt,value
2022-09-12T00:01:46.333Z,70.47
2022-09-12T00:04:13.278Z,70.46
2022-09-12T00:06:47.165Z,70.32
2022-09-12T00:09:15.258Z,70.85
2022-09-12T00:11:44.554Z,70.88
2022-09-12T00:14:17.474Z,70.43
2022-09-12T00:16:44.934Z,70.58
2022-09-12T00:19:16.264Z,70.87
2022-09-12T00:21:51.345Z,71.04
2022-09-12T00:24:26.803Z,70.62
2022-09-12T00:29:39.274Z,71.10
2022-09-12T00:32:07.882Z,71.15
2022-09-12T00:34:37.751Z,70.84
2022-09-12T00:37:04.620Z,71.13
2022-09-12T00:39:51.826Z,71.24
2022-09-12T00:42:41.147Z,71.04
2022-09-12T00:45:28.896Z,71.09
2022-09-12T00:47:58.706Z,71.24
2022-09-12T00:50:29.508Z,71.21
2022-09-12T00:53:16.462Z,70.89
2022-09-12T00:55:51.753Z,71.02
2022-09-12T00:58:44.670Z,71.10
2022-09-12T01:01:13.457Z,71.51
2022-09-12T01:03:46.167Z,71.29
2022-09-12T01:06:21.868Z,71.41
2022-09-12T01:08:53.299Z,71.22
2022-09-12T01:11:24.114Z,71.21
2022-09-12T01:13:53.865Z,71.35
2022-09-12T01:16:26.594Z,71.49
2022-09-12T01:18:56.206Z,71.51
2022-09-12T01:21:43.288Z,71.16
2022-09-12T01:24:47.560Z,71.62
2022-09-12T01:27:32.916Z,71.60
2022-09-12T01:30:37.341Z,71.51
2022-09-12T01:33:26.656Z,71.42
2022-09-12T01:36:24.413Z,71.44
2022-09-12T01:39:07.375Z,71.51
2022-09-12T01:41:56.408Z,71.56
2022-09-12T01:45:11.473Z,71.76
2022-09-12T01:48:15.787Z,71.71
2022-09-12T01:51:06.953Z,71.75
2022-09-12T01:53:56.272Z,71.88
2022-09-12T01:56:31.641Z,71.73
2022-09-12T01:59:25.583Z,71.84
2022-09-12T02:02:07.479Z,72.24
2022-09-12T02:05:01.453Z,71.95
2022-09-12T02:07:36.793Z,71.75
2022-09-12T02:10:20.990Z,72.19
2022-09-12T02:13:00.757Z,72.36
2022-09-12T02:15:43.854Z,72.09
2022-09-12T02:18:18.769Z,72.11
2022-09-12T02:20:54.130Z,71.99
2022-09-12T02:23:32.046Z,72.14
2022-09-12T02:26:12.591Z,71.93
2022-09-12T02:28:47.469Z,72.21
2022-09-12T02:31:43.730Z,71.89
2022-09-12T02:34:33.517Z,71.95
2022-09-12T02:37:32.708Z,72.06
2022-09-12T02:40:14.794Z,72.47
2022-09-12T02:42:44.376Z,72.63
2022-09-12T02:45:17.132Z,72.53
2022-09-12T02:47:50.445Z,72.76
2022-09-12T02:50:30.589Z,72.93
2022-09-12T02:53:06.991Z,72.78
2022-09-12T02:55:38.932Z,72.96
2022-09-12T02:58:15.442Z,72.85
2022-09-12T03:01:08.951Z,72.88
2022-09-12T03:04:19.125Z,72.89
2022-09-12T03:07:16.178Z,72.57
2022-09-12T03:10:17.191Z,72.44
2022-09-12T03:13:15.116Z,72.52
2022-09-12T03:16:37.006Z,72.64
2022-09-12T03:19:38.113Z,72.58
2022-09-12T03:22:48.145Z,72.81
2022-09-12T03:28:25.473Z,72.76
2022-09-12T03:30:56.182Z,72.56
2022-09-12T03:33:28.795Z,72.79
2022-09-12T03:35:56.072Z,73.04
2022-09-12T03:38:27.685Z,73.09
2022-09-12T03:40:56.501Z,72.94
2022-09-12T03:43:25.731Z,72.93
2022-09-12T03:45:56.216Z,72.79
2022-09-12T03:48:35.580Z,73.37
2022-09-12T03:51:04.718Z,73.25
2022-09-12T03:53:35.167Z,73.27
2022-09-12T03:56:08.353Z,73.36
2022-09-12T03:58:37.637Z,73.33
2022-09-12T04:01:19.106Z,73.16
2022-09-12T04:03:50.632Z,73.18
2022-09-12T04:06:24.968Z,73.46
2022-09-12T04:08:55.168Z,73.35
2022-09-12T04:11:23.975Z,73.41
2022-09-12T04:13:51.903Z,73.53
2022-09-12T04:16:25.719Z,73.46
2022-09-12T04:18:56.660Z,73.44
2022-09-12T04:21:26.472Z,73.80
2022-09-12T04:23:57.028Z,73.58
2022-09-12T04:26:24.910Z,73.70
2022-09-12T04:29:00.652Z,73.68
2022-09-12T04:31:27.494Z,73.79
2022-09-12T04:34:00.088Z,73.81
2022-09-12T04:36:34.625Z,73.72
2022-09-12T04:39:05.977Z,73.89
2022-09-12T04:41:36.954Z,73.71
2022-09-12T04:44:07.338Z,73.73
2022-09-12T04:46:49.306Z,73.80
2022-09-12T04:49:21.416Z,73.62
2022-09-12T04:51:50.987Z,73.72
2022-09-12T04:54:22.081Z,73.76
2022-09-12T04:56:55.394Z,73.97
2022-09-12T04:59:24.389Z,74.04
2022-09-12T05:01:57.570Z,73.64
2022-09-12T05:04:32.553Z,73.83
2022-09-12T05:07:00.350Z,73.80
2022-09-12T05:09:29.611Z,74.08
2022-09-12T05:12:07.197Z,74.15
2022-09-12T05:14:36.153Z,74.21
2022-09-12T05:17:08.788Z,74.04
2022-09-12T05:19:38.159Z,74.25
2022-09-12T05:22:08.756Z,74.03
2022-09-12T05:24:36.140Z,74.25
2022-09-12T05:27:10.027Z,74.08
2022-09-12T05:29:37.999Z,74.13
2022-09-12T05:32:07.278Z,74.09
2022-09-12T05:34:34.190Z,73.84
2022-09-12T05:37:02.183Z,74.00
2022-09-12T05:39:31.058Z,74.13
2022-09-12T05:41:57.745Z,74.07
2022-09-12T05:44:28.738Z,73.76
2022-09-12T05:47:03.932Z,74.04
2022-09-12T05:49:36.506Z,73.95
2022-09-12T05:52:06.032Z,73.74
2022-09-12T05:54:35.455Z,74.02
2022-09-12T05:57:02.003Z,74.08
2022-09-12T05:59:28.680Z,74.13
2022-09-12T06:02:00.573Z,73.94
2022-09-12T06:04:31.898Z,74.15
2022-09-12T06:07:04.147Z,74.05
2022-09-12T06:09:39.912Z,74.16
2022-09-12T06:12:12.746Z,74.34
2022-09-12T06:14:39.613Z,74.27
2022-09-12T06:17:07.254Z,74.18
2022-09-12T06:19:35.006Z,74.36
2022-09-12T06:22:07.899Z,74.75
2022-09-12T06:24:36.294Z,74.35
2022-09-12T06:27:03.041Z,75.46
2022-09-12T06:29:33.560Z,74.58
2022-09-12T06:32:16.047Z,74.46
2022-09-12T06:34:43.406Z,74.85
2022-09-12T06:37:12.759Z,74.94
2022-09-12T06:39:48.770Z,74.96
2022-09-12T06:42:17.528Z,74.70
2022-09-12T06:44:45.913Z,74.97
2022-09-12T06:47:16.811Z,74.87
2022-09-12T06:49:51.209Z,75.01
2022-09-12T06:52:22.021Z,75.06
2022-09-12T06:54:51.509Z,74.84
2022-09-12T06:57:29.184Z,75.06
2022-09-12T06:59:56.982Z,75.49
2022-09-12T07:02:30.168Z,75.26
2022-09-12T07:04:58.035Z,75.45
2022-09-12T07:07:25.392Z,75.23
2022-09-12T07:09:57.808Z,75.61
2022-09-12T07:12:29.394Z,75.89
2022-09-12T07:15:01.366Z,75.44
2022-09-12T07:17:31.661Z,75.92
2022-09-12T07:20:05.179Z,75.53
2022-09-12T07:22:31.909Z,75.96
2022-09-12T07:25:00.270Z,76.14
2022-09-12T07:27:28.501Z,76.23
2022-09-12T07:29:56.659Z,76.07
2022-09-12T07:32:30.418Z,75.96
2022-09-12T07:34:58.654Z,76.13
2022-09-12T07:37:31.922Z,76.04
2022-09-12T07:39:59.808Z,76.10
2022-09-12T07:42:27.492Z,76.06
2022-09-12T07:44:57.383Z,76.24
2022-09-12T07:47:24.038Z,76.61
2022-09-12T07:49:51.798Z,76.59
2022-09-12T07:52:20.891Z,76.49
2022-09-12T07:54:51.409Z,76.62
2022-09-12T07:57:22.589Z,76.28
2022-09-12T07:59:56.600Z,76.33
2022-09-12T08:02:23.466Z,77.01
2022-09-12T08:04:54.686Z,76.54
2022-09-12T08:07:27.728Z,76.65
2022-09-12T08:10:06.612Z,76.79
2022-09-12T08:12:34.931Z,76.89
2022-09-12T08:15:06.310Z,78.15
2022-09-12T08:17:37.718Z,77.18
2022-09-12T08:20:04.676Z,76.86
2022-09-12T08:22:34.891Z,76.98
2022-09-12T08:25:01.633Z,77.23
2022-09-12T08:27:32.645Z,77.21
2022-09-12T08:30:01.929Z,77.15
2022-09-12T08:32:30.211Z,77.53
2022-09-12T08:34:58.685Z,77.16
2022-09-12T08:37:29.574Z,78.07
2022-09-12T08:40:19.626Z,77.01
2022-09-12T08:43:07.286Z,76.96
2022-09-12T08:45:47.277Z,77.09
2022-09-12T08:48:15.644Z,77.28
2022-09-12T08:50:49.316Z,76.91
2022-09-12T08:53:23.740Z,76.98
2022-09-12T08:56:00.419Z,76.97
2022-09-12T08:58:29.329Z,77.22
2022-09-12T09:01:10.193Z,76.83
2022-09-12T09:04:14.760Z,76.88
2022-09-12T09:07:18.876Z,76.74
2022-09-12T09:10:09.014Z,76.62
2022-09-12T09:13:00.067Z,76.39
2022-09-12T09:15:42.445Z,76.41
2022-09-12T09:18:21.243Z,76.36
2022-09-12T09:21:07.220Z,76.06
2022-09-12T09:23:45.251Z,76.19
2022-09-12T09:26:29.203Z,76.30
2022-09-12T09:29:26.178Z,75.98
2022-09-12T09:31:58.028Z,76.22
2022-09-12T09:34:31.503Z,76.05
2022-09-12T09:37:16.839Z,75.91
2022-09-12T09:39:59.620Z,75.86
2022-09-12T09:42:48.760Z,75.88
2022-09-12T09:45:24.756Z,75.90
2022-09-12T09:48:37.103Z,75.83
2022-09-12T09:51:12.287Z,75.69
2022-09-12T09:54:03.929Z,75.05
2022-09-12T09:56:43.003Z,74.91
2022-09-12T09:59:15.632Z,74.70
2022-09-12T10:01:46.470Z,74.61
2022-09-12T10:04:32.245Z,73.96
2022-09-12T10:07:04.519Z,74.18
2022-09-12T10:09:33.730Z,74.00
2022-09-12T10:12:22.067Z,73.78
2022-09-12T10:15:06.766Z,73.53
2022-09-12T10:17:44.765Z,72.91
2022-09-12T10:20:32.114Z,72.79
2022-09-12T10:23:01.861Z,72.52
2022-09-12T10:25:34.332Z,72.29
2022-09-12T10:28:02.917Z,72.38
2022-09-12T10:30:37.228Z,72.19
2022-09-12T10:33:11.767Z,71.96
2022-09-12T10:35:49.847Z,71.83
2022-09-12T10:38:28.280Z,71.50
2022-09-12T10:41:01.548Z,71.25
2022-09-12T10:43:40.775Z,70.85
2022-09-12T10:46:18.678Z,70.63
2022-09-12T10:48:53.247Z,70.41
2022-09-12T10:51:42.121Z,69.32
2022-09-12T10:54:13.230Z,69.72
2022-09-12T10:56:56.653Z,69.09
2022-09-12T10:59:43.161Z,68.74
2022-09-12T11:02:41.362Z,68.83
2022-09-12T11:05:34.917Z,68.72
2022-09-12T11:08:27.788Z,68.66
2022-09-12T11:11:14.132Z,69.24
2022-09-12T11:14:07.435Z,68.76
2022-09-12T11:16:42.828Z,69.06
2022-09-12T11:19:38.138Z,68.21
2022-09-12T11:22:34.137Z,68.37
2022-09-12T11:25:34.844Z,67.88
2022-09-12T11:28:01.822Z,68.04
2022-09-12T11:30:48.333Z,67.82
2022-09-12T11:33:43.223Z,67.90
2022-09-12T11:36:50.325Z,67.60
2022-09-12T11:39:38.218Z,67.61
2022-09-12T11:42:10.067Z,67.61
2022-09-12T11:44:43.206Z,67.23
2022-09-12T11:47:15.329Z,67.23
2022-09-12T11:49:49.007Z,67.33
2022-09-12T11:52:22.026Z,66.94
2022-09-12T11:55:29.344Z,66.79
2022-09-12T11:57:59.231Z,66.98
2022-09-12T12:00:29.190Z,66.46
2022-09-12T12:03:24.702Z,65.81
2022-09-12T12:06:06.091Z,65.47
2022-09-12T12:08:42.051Z,65.37
2022-09-12T12:11:12.229Z,64.72
2022-09-12T12:14:02.827Z,63.86
2022-09-12T12:16:46.880Z,64.15
2022-09-12T12:19:20.511Z,63.67
2022-09-12T12:21:54.769Z,63.59
2022-09-12T12:24:29.620Z,63.27
2022-09-12T12:27:07.132Z,62.43
2022-09-12T12:29:44.053Z,62.28
2022-09-12T12:32:25.576Z,62.78
2022-09-12T12:35:06.194Z,62.42
2022-09-12T12:37:54.000Z,61.99
2022-09-12T12:40:28.428Z,62.25
2022-09-12T12:43:02.765Z,61.90
2022-09-12T12:45:35.980Z,61.53
2022-09-12T12:48:15.928Z,61.29
2022-09-12T12:50:44.108Z,61.80
2022-09-12T12:53:29.032Z,61.71
2022-09-12T12:55:57.821Z,61.51
2022-09-12T12:58:54.188Z,61.71
2022-09-12T13:01:24.891Z,61.81
2022-09-12T13:03:59.763Z,61.34
2022-09-12T13:06:37.519Z,61.63
2022-09-12T13:09:10.066Z,61.79
2022-09-12T13:11:40.709Z,61.42
2022-09-12T13:14:51.496Z,60.50
2022-09-12T13:17:43.651Z,60.81
2022-09-12T13:20:31.250Z,61.50
2022-09-12T13:22:58.834Z,61.70
2022-09-12T13:25:36.997Z,61.22
2022-09-12T13:28:42.283Z,61.10
2022-09-12T13:31:31.237Z,60.88
2022-09-12T13:34:06.667Z,60.82
2022-09-12T13:36:53.749Z,60.90
2022-09-12T13:39:36.847Z,61.10
2022-09-12T13:42:24.629Z,60.83
2022-09-12T13:45:21.704Z,60.78
2022-09-12T13:48:08.850Z,60.74
2022-09-12T13:51:06.727Z,59.92
2022-09-12T13:53:49.669Z,58.62
2022-09-12T13:56:29.053Z,60.14
2022-09-12T13:59:07.420Z,59.75
2022-09-12T14:01:44.710Z,59.23
2022-09-12T14:04:44.927Z,58.96
2022-09-12T14:07:25.801Z,59.00
2022-09-12T14:10:01.953Z,59.06
2022-09-12T14:12:40.239Z,58.52
2022-09-12T14:15:36.101Z,57.66
2022-09-12T14:18:07.046Z,58.67
2022-09-12T14:20:53.360Z,58.82
2022-09-12T14:23:38.702Z,58.34
2022-09-12T14:26:08.744Z,58.71
2022-09-12T14:28:37.449Z,58.73
2022-09-12T14:31:16.933Z,58.46
2022-09-12T14:34:11.135Z,59.08
2022-09-12T14:36:50.424Z,58.67
2022-09-12T14:39:44.302Z,59.25
2022-09-12T14:42:28.680Z,59.09
2022-09-12T14:45:03.582Z,58.91
2022-09-12T14:47:40.342Z,58.96
2022-09-12T14:50:27.058Z,58.53
2022-09-12T14:53:21.695Z,58.00
2022-09-12T14:55:57.450Z,58.40
2022-09-12T14:58:26.894Z,57.86
2022-09-12T15:01:16.786Z,56.91
2022-09-12T15:03:49.242Z,57.55
2022-09-12T15:06:41.453Z,56.52
2022-09-12T15:09:14.278Z,57.47
2022-09-12T15:11:40.956Z,57.77
2022-09-12T15:14:26.556Z,57.58
2022-09-12T15:16:54.835Z,56.85
2022-09-12T15:19:22.791Z,56.75
2022-09-12T15:21:58.103Z,56.61
2022-09-12T15:24:33.564Z,56.61
2022-09-12T15:27:04.398Z,57.12
2022-09-12T15:29:34.532Z,57.21
2022-09-12T15:32:05.889Z,57.34
2022-09-12T15:34:44.760Z,57.57
2022-09-12T15:37:24.355Z,56.96
2022-09-12T15:39:56.545Z,57.20
2022-09-12T15:42:30.198Z,57.30
2022-09-12T15:45:16.462Z,57.81
2022-09-12T15:47:53.257Z,58.07
2022-09-12T15:50:24.040Z,58.40
2022-09-12T15:52:52.645Z,58.06
2022-09-12T15:55:25.579Z,57.99
2022-09-12T15:57:53.932Z,58.53
2022-09-12T16:00:30.717Z,58.41
2022-09-12T16:02:59.387Z,58.59
2022-09-12T16:05:37.337Z,58.89
2022-09-12T16:08:05.144Z,58.55
2022-09-12T16:10:31.833Z,58.76
2022-09-12T16:13:09.881Z,58.85
2022-09-12T16:15:39.971Z,58.95
2022-09-12T16:18:08.112Z,59.50
2022-09-12T16:20:36.190Z,59.49
2022-09-12T16:23:04.300Z,59.40
2022-09-12T16:25:33.319Z,59.36
2022-09-12T16:28:01.808Z,59.80
2022-09-12T16:30:32.822Z,59.89
2022-09-12T16:33:03.608Z,59.97
2022-09-12T16:35:35.327Z,59.42
2022-09-12T16:38:06.616Z,59.53
2022-09-12T16:40:40.693Z,59.92
2022-09-12T16:43:10.141Z,59.68
2022-09-12T16:45:36.908Z,59.51
2022-09-12T16:48:06.423Z,59.64
2022-09-12T16:50:33.185Z,59.41
2022-09-12T16:53:05.909Z,59.57
2022-09-12T16:55:52.345Z,59.91
2022-09-12T16:58:20.477Z,59.54
2022-09-12T17:00:52.010Z,59.63
2022-09-12T17:03:21.476Z,60.05
2022-09-12T17:06:00.980Z,59.52
2022-09-12T17:08:38.611Z,59.78
2022-09-12T17:11:22.699Z,59.64
2022-09-12T17:14:08.825Z,59.61
2022-09-12T17:16:40.204Z,59.90
2022-09-12T17:19:10.729Z,59.51
2022-09-12T17:21:38.691Z,60.07
2022-09-12T17:24:18.451Z,60.52
2022-09-12T17:26:46.037Z,60.57
2022-09-12T17:29:15.519Z,60.62
2022-09-12T17:31:46.475Z,60.67
2022-09-12T17:34:15.489Z,60.40
2022-09-12T17:36:44.841Z,60.58
2022-09-12T17:39:18.276Z,60.41
2022-09-12T17:41:47.537Z,60.74
2022-09-12T17:44:30.917Z,60.93
2022-09-12T17:47:00.480Z,60.87
2022-09-12T17:49:29.287Z,60.87
2022-09-12T17:51:59.313Z,61.45
2022-09-12T17:54:28.061Z,61.50
2022-09-12T17:57:03.409Z,61.42
2022-09-12T17:59:31.581Z,60.97
2022-09-12T18:02:13.425Z,61.54
2022-09-12T18:04:55.379Z,61.04
2022-09-12T18:07:23.357Z,61.75
2022-09-12T18:09:54.781Z,61.32
2022-09-12T18:12:26.495Z,61.36
2022-09-12T18:15:05.926Z,61.41
2022-09-12T18:17:42.213Z,62.21
2022-09-12T18:20:18.233Z,61.91
2022-09-12T18:22:44.833Z,62.16
2022-09-12T18:25:13.970Z,62.11
2022-09-12T18:27:45.909Z,62.18
2022-09-12T18:30:21.479Z,62.60
2022-09-12T18:32:56.024Z,62.72
2022-09-12T18:35:31.628Z,62.65
2022-09-12T18:38:00.714Z,62.77
2022-09-12T18:40:30.921Z,62.48
2022-09-12T18:42:58.234Z,62.06
2022-09-12T18:45:28.641Z,62.41
2022-09-12T18:47:56.878Z,62.35
2022-09-12T18:50:26.865Z,61.64
2022-09-12T18:53:00.217Z,62.23
2022-09-12T18:55:28.293Z,61.70
2022-09-12T18:57:58.494Z,62.00
2022-09-12T19:00:28.694Z,62.14
2022-09-12T19:02:56.821Z,62.03
2022-09-12T19:05:24.036Z,62.61
2022-09-12T19:07:50.737Z,62.64
2022-09-12T19:10:21.246Z,62.64
2022-09-12T19:12:49.340Z,62.32
2022-09-12T19:15:17.403Z,62.88
2022-09-12T19:17:46.872Z,62.55
2022-09-12T19:20:13.930Z,62.23
2022-09-12T19:22:46.336Z,62.25
2022-09-12T19:25:13.348Z,62.47
2022-09-12T19:27:40.308Z,62.32
2022-09-12T19:30:08.473Z,62.04
2022-09-12T19:32:38.549Z,62.32
2022-09-12T19:35:08.900Z,62.53
2022-09-12T19:37:36.425Z,61.90
2022-09-12T19:40:05.498Z,62.29
2022-09-12T19:42:39.629Z,62.47
2022-09-12T19:45:08.322Z,61.87
2022-09-12T19:47:34.977Z,62.40
2022-09-12T19:50:02.375Z,62.11
2022-09-12T19:52:30.561Z,62.21
2022-09-12T19:54:57.998Z,62.44
2022-09-12T19:57:24.936Z,62.11
2022-09-12T19:59:52.853Z,62.24
2022-09-12T20:02:20.734Z,62.12
2022-09-12T20:04:49.003Z,62.20
2022-09-12T20:07:17.139Z,62.35
2022-09-12T20:09:53.066Z,62.17
2022-09-12T20:12:21.196Z,62.39
2022-09-12T20:14:48.007Z,62.21
2022-09-12T20:17:22.564Z,62.09
2022-09-12T20:19:51.652Z,62.38
2022-09-12T20:22:22.715Z,62.37
2022-09-12T20:24:53.644Z,62.21
2022-09-12T20:27:21.107Z,62.40
2022-09-12T20:29:48.990Z,62.30
2022-09-12T20:32:17.104Z,62.40
2022-09-12T20:34:44.888Z,62.75
2022-09-12T20:37:13.177Z,62.85
2022-09-12T20:39:40.170Z,63.44
2022-09-12T20:42:08.455Z,62.72
2022-09-12T20:44:37.184Z,63.25
2022-09-12T20:47:04.449Z,62.99
2022-09-12T20:49:43.091Z,63.31
2022-09-12T20:52:09.781Z,63.76
2022-09-12T20:54:40.135Z,63.53
2022-09-12T20:57:11.682Z,63.64
2022-09-12T20:59:45.087Z,63.72
2022-09-12T21:02:16.268Z,63.55
2022-09-12T21:04:43.507Z,63.93
2022-09-12T21:07:14.060Z,63.99
2022-09-12T21:09:43.600Z,64.17
2022-09-12T21:12:13.298Z,64.39
2022-09-12T21:14:44.908Z,64.64
2022-09-12T21:17:11.724Z,64.66
2022-09-12T21:19:43.176Z,64.92
2022-09-12T21:22:10.710Z,65.04
2022-09-12T21:24:43.159Z,64.84
2022-09-12T21:27:11.345Z,64.88
2022-09-12T21:29:38.411Z,64.77
2022-09-12T21:32:13.913Z,64.90
2022-09-12T21:37:24.907Z,65.21
2022-09-12T21:39:54.525Z,65.38
2022-09-12T21:42:23.356Z,65.48
2022-09-12T21:44:56.114Z,65.45
2022-09-12T21:47:31.564Z,65.56
2022-09-12T21:50:03.154Z,65.61
2022-09-12T21:52:30.051Z,65.74
2022-09-12T21:55:01.825Z,65.85
2022-09-12T21:57:32.219Z,65.76
2022-09-12T22:00:00.563Z,65.67
2022-09-12T22:02:49.200Z,66.01
2022-09-12T22:05:22.488Z,65.99
2022-09-12T22:07:50.166Z,65.83
2022-09-12T22:10:17.421Z,66.07
2022-09-12T22:12:46.113Z,66.22
2022-09-12T22:15:39.637Z,66.26
2022-09-12T22:18:06.448Z,66.46
2022-09-12T22:20:37.077Z,66.40
2022-09-12T22:23:25.176Z,66.48
2022-09-12T22:25:56.369Z,66.46
2022-09-12T22:28:25.168Z,66.64
2022-09-12T22:31:01.181Z,66.90
2022-09-12T22:33:35.214Z,66.93
2022-09-12T22:36:02.503Z,66.97
2022-09-12T22:38:29.574Z,67.29
2022-09-12T22:41:09.716Z,67.33
2022-09-12T22:43:36.940Z,67.46
2022-09-12T22:46:12.642Z,67.66
2022-09-12T22:48:43.643Z,67.74
2022-09-12T22:51:12.203Z,67.85
2022-09-12T22:53:42.750Z,67.95
2022-09-12T22:56:14.940Z,68.21
2022-09-12T23:01:32.541Z,68.40
2022-09-12T23:04:09.617Z,68.54
2022-09-12T23:06:36.374Z,68.63
2022-09-12T23:09:07.752Z,68.90
2022-09-12T23:11:40.159Z,68.80
2022-09-12T23:14:08.276Z,68.78
2022-09-12T23:16:38.006Z,68.96
2022-09-12T23:19:08.220Z,69.16
2022-09-12T23:21:34.986Z,69.60
2022-09-12T23:24:06.670Z,69.20
2022-09-12T23:26:41.351Z,69.52
2022-09-12T23:29:19.958Z,69.49
2022-09-12T23:32:03.078Z,69.68
2022-09-12T23:34:37.306Z,69.70
2022-09-12T23:37:08.336Z,69.97
2022-09-12T23:39:35.507Z,70.09
2022-09-12T23:42:03.931Z,70.22
2022-09-12T23:44:31.708Z,70.51
2022-09-12T23:47:05.501Z,70.35
2022-09-12T23:49:42.827Z,70.39
2022-09-12T23:52:13.764Z,70.62
2022-09-12T23:54:42.243Z,70.72
2022-09-12T23:57:10.242Z,70.83
2022-09-12T23:59:41.031Z,70.85
